sensor_id;sensor_type;location;lat;lon;timestamp;P1;durP1;ratioP1;P2;durP2;ratioP2
8572;SDS011;4324;42.012;24.872;2023-02-16T00:00:50;7.30;;;6.30;;
8572;SDS011;4324;42.012;24.872;2023-02-16T00:03:17;8.23;;;5.90;;
8572;SDS011;4324;42.012;24.872;2023-02-16T00:05:46;7.83;;;6.33;;
8572;SDS011;4324;42.012;24.872;2023-02-16T00:08:13;7.20;;;5.60;;
8572;SDS011;4324;42.012;24.872;2023-02-16T00:10:41;6.83;;;5.60;;
8572;SDS011;4324;42.012;24.872;2023-02-16T00:13:29;7.23;;;5.83;;
8572;SDS011;4324;42.012;24.872;2023-02-16T00:16:13;6.77;;;5.77;;
8572;SDS011;4324;42.012;24.872;2023-02-16T00:18:41;6.93;;;5.60;;
8572;SDS011;4324;42.012;24.872;2023-02-16T00:21:08;9.33;;;5.93;;
8572;SDS011;4324;42.012;24.872;2023-02-16T00:23:35;7.33;;;6.27;;
8572;SDS011;4324;42.012;24.872;2023-02-16T00:26:02;6.90;;;5.87;;
8572;SDS011;4324;42.012;24.872;2023-02-16T00:28:31;7.60;;;5.77;;
8572;SDS011;4324;42.012;24.872;2023-02-16T00:30:58;6.77;;;5.43;;
8572;SDS011;4324;42.012;24.872;2023-02-16T00:33:25;6.97;;;5.63;;
8572;SDS011;4324;42.012;24.872;2023-02-16T00:35:52;7.37;;;5.10;;
8572;SDS011;4324;42.012;24.872;2023-02-16T00:38:18;7.57;;;5.73;;
8572;SDS011;4324;42.012;24.872;2023-02-16T00:40:45;7.67;;;6.30;;
8572;SDS011;4324;42.012;24.872;2023-02-16T00:43:18;7.37;;;6.07;;
8572;SDS011;4324;42.012;24.872;2023-02-16T00:45:51;8.40;;;5.67;;
8572;SDS011;4324;42.012;24.872;2023-02-16T00:48:18;7.20;;;5.87;;
8572;SDS011;4324;42.012;24.872;2023-02-16T00:50:46;7.20;;;5.67;;
8572;SDS011;4324;42.012;24.872;2023-02-16T00:53:13;6.07;;;5.47;;
8572;SDS011;4324;42.012;24.872;2023-02-16T00:55:40;6.00;;;5.40;;
8572;SDS011;4324;42.012;24.872;2023-02-16T00:58:10;7.23;;;5.63;;
8572;SDS011;4324;42.012;24.872;2023-02-16T01:00:42;6.70;;;5.47;;
8572;SDS011;4324;42.012;24.872;2023-02-16T01:03:14;7.00;;;5.60;;
8572;SDS011;4324;42.012;24.872;2023-02-16T01:05:43;6.80;;;5.23;;
8572;SDS011;4324;42.012;24.872;2023-02-16T01:08:10;6.17;;;5.10;;
8572;SDS011;4324;42.012;24.872;2023-02-16T01:10:56;6.67;;;5.33;;
8572;SDS011;4324;42.012;24.872;2023-02-16T01:13:35;7.50;;;5.90;;
8572;SDS011;4324;42.012;24.872;2023-02-16T01:16:09;7.57;;;5.43;;
8572;SDS011;4324;42.012;24.872;2023-02-16T01:18:40;6.97;;;5.40;;
8572;SDS011;4324;42.012;24.872;2023-02-16T01:21:07;7.53;;;6.20;;
8572;SDS011;4324;42.012;24.872;2023-02-16T01:23:34;7.83;;;5.57;;
8572;SDS011;4324;42.012;24.872;2023-02-16T01:26:02;7.03;;;5.57;;
8572;SDS011;4324;42.012;24.872;2023-02-16T01:28:32;7.87;;;5.50;;
8572;SDS011;4324;42.012;24.872;2023-02-16T01:31:00;5.93;;;4.87;;
8572;SDS011;4324;42.012;24.872;2023-02-16T01:33:28;6.77;;;5.57;;
8572;SDS011;4324;42.012;24.872;2023-02-16T01:35:56;7.60;;;5.30;;
8572;SDS011;4324;42.012;24.872;2023-02-16T01:38:24;6.40;;;5.23;;
8572;SDS011;4324;42.012;24.872;2023-02-16T01:40:58;6.93;;;5.57;;
8572;SDS011;4324;42.012;24.872;2023-02-16T01:43:34;5.23;;;4.50;;
8572;SDS011;4324;42.012;24.872;2023-02-16T01:46:11;7.50;;;5.70;;
8572;SDS011;4324;42.012;24.872;2023-02-16T01:48:42;7.30;;;6.03;;
8572;SDS011;4324;42.012;24.872;2023-02-16T01:51:13;6.57;;;5.23;;
8572;SDS011;4324;42.012;24.872;2023-02-16T01:53:45;7.47;;;5.53;;
8572;SDS011;4324;42.012;24.872;2023-02-16T01:56:18;7.97;;;5.80;;
8572;SDS011;4324;42.012;24.872;2023-02-16T01:58:54;7.03;;;5.80;;
8572;SDS011;4324;42.012;24.872;2023-02-16T02:04:15;6.80;;;5.10;;
8572;SDS011;4324;42.012;24.872;2023-02-16T02:07:07;6.13;;;5.33;;
8572;SDS011;4324;42.012;24.872;2023-02-16T02:09:39;7.30;;;5.77;;
8572;SDS011;4324;42.012;24.872;2023-02-16T02:12:12;7.73;;;5.33;;
8572;SDS011;4324;42.012;24.872;2023-02-16T02:14:47;7.87;;;5.67;;
8572;SDS011;4324;42.012;24.872;2023-02-16T02:17:15;6.30;;;5.50;;
8572;SDS011;4324;42.012;24.872;2023-02-16T02:19:47;9.37;;;5.63;;
8572;SDS011;4324;42.012;24.872;2023-02-16T02:25:52;6.60;;;5.23;;
8572;SDS011;4324;42.012;24.872;2023-02-16T02:28:47;6.57;;;5.23;;
8572;SDS011;4324;42.012;24.872;2023-02-16T02:31:22;6.50;;;5.60;;
8572;SDS011;4324;42.012;24.872;2023-02-16T02:33:59;7.43;;;6.03;;
8572;SDS011;4324;42.012;24.872;2023-02-16T02:36:40;7.70;;;5.33;;
8572;SDS011;4324;42.012;24.872;2023-02-16T02:39:17;6.57;;;5.20;;
8572;SDS011;4324;42.012;24.872;2023-02-16T02:41:52;6.90;;;5.30;;
8572;SDS011;4324;42.012;24.872;2023-02-16T02:44:32;6.03;;;5.13;;
8572;SDS011;4324;42.012;24.872;2023-02-16T02:47:04;8.20;;;5.23;;
8572;SDS011;4324;42.012;24.872;2023-02-16T02:49:30;5.53;;;4.57;;
8572;SDS011;4324;42.012;24.872;2023-02-16T02:51:57;23.50;;;7.07;;
8572;SDS011;4324;42.012;24.872;2023-02-16T02:54:26;15.60;;;6.47;;
8572;SDS011;4324;42.012;24.872;2023-02-16T02:57:14;7.63;;;5.13;;
8572;SDS011;4324;42.012;24.872;2023-02-16T03:00:04;7.53;;;5.67;;
8572;SDS011;4324;42.012;24.872;2023-02-16T03:03:01;5.53;;;4.67;;
8572;SDS011;4324;42.012;24.872;2023-02-16T03:05:32;7.10;;;5.37;;
8572;SDS011;4324;42.012;24.872;2023-02-16T03:08:02;5.97;;;4.97;;
8572;SDS011;4324;42.012;24.872;2023-02-16T03:10:38;6.47;;;5.53;;
8572;SDS011;4324;42.012;24.872;2023-02-16T03:13:25;6.57;;;5.00;;
8572;SDS011;4324;42.012;24.872;2023-02-16T03:15:55;7.20;;;5.47;;
8572;SDS011;4324;42.012;24.872;2023-02-16T03:18:24;6.93;;;5.70;;
8572;SDS011;4324;42.012;24.872;2023-02-16T03:21:11;7.93;;;5.30;;
8572;SDS011;4324;42.012;24.872;2023-02-16T03:23:57;8.70;;;5.93;;
8572;SDS011;4324;42.012;24.872;2023-02-16T03:26:44;6.60;;;5.30;;
8572;SDS011;4324;42.012;24.872;2023-02-16T03:29:31;6.53;;;5.47;;
8572;SDS011;4324;42.012;24.872;2023-02-16T03:32:00;5.80;;;5.17;;
8572;SDS011;4324;42.012;24.872;2023-02-16T03:34:27;7.07;;;5.03;;
8572;SDS011;4324;42.012;24.872;2023-02-16T03:36:56;7.10;;;5.67;;
8572;SDS011;4324;42.012;24.872;2023-02-16T03:39:25;7.07;;;5.23;;
8572;SDS011;4324;42.012;24.872;2023-02-16T03:41:54;7.17;;;5.47;;
8572;SDS011;4324;42.012;24.872;2023-02-16T03:44:22;6.10;;;4.97;;
8572;SDS011;4324;42.012;24.872;2023-02-16T03:46:49;5.80;;;5.03;;
8572;SDS011;4324;42.012;24.872;2023-02-16T03:49:18;7.00;;;5.50;;
8572;SDS011;4324;42.012;24.872;2023-02-16T03:51:45;7.50;;;5.87;;
8572;SDS011;4324;42.012;24.872;2023-02-16T03:54:12;8.27;;;5.33;;
8572;SDS011;4324;42.012;24.872;2023-02-16T03:56:39;5.93;;;4.60;;
8572;SDS011;4324;42.012;24.872;2023-02-16T03:59:06;6.77;;;5.73;;
8572;SDS011;4324;42.012;24.872;2023-02-16T04:01:33;7.43;;;5.10;;
8572;SDS011;4324;42.012;24.872;2023-02-16T04:04:00;6.73;;;5.50;;
8572;SDS011;4324;42.012;24.872;2023-02-16T04:06:28;8.17;;;4.90;;
8572;SDS011;4324;42.012;24.872;2023-02-16T04:08:55;7.43;;;5.73;;
8572;SDS011;4324;42.012;24.872;2023-02-16T04:11:22;7.50;;;5.80;;
8572;SDS011;4324;42.012;24.872;2023-02-16T04:14:06;6.47;;;4.83;;
8572;SDS011;4324;42.012;24.872;2023-02-16T04:16:33;6.97;;;5.23;;
8572;SDS011;4324;42.012;24.872;2023-02-16T04:19:00;7.57;;;5.87;;
8572;SDS011;4324;42.012;24.872;2023-02-16T04:21:31;8.00;;;6.10;;
8572;SDS011;4324;42.012;24.872;2023-02-16T04:24:00;6.50;;;5.53;;
8572;SDS011;4324;42.012;24.872;2023-02-16T04:26:33;7.47;;;5.70;;
8572;SDS011;4324;42.012;24.872;2023-02-16T04:29:01;7.57;;;5.30;;
8572;SDS011;4324;42.012;24.872;2023-02-16T04:31:28;7.87;;;6.13;;
8572;SDS011;4324;42.012;24.872;2023-02-16T04:33:55;7.37;;;6.00;;
8572;SDS011;4324;42.012;24.872;2023-02-16T04:36:21;8.33;;;6.80;;
8572;SDS011;4324;42.012;24.872;2023-02-16T04:38:50;7.80;;;6.10;;
8572;SDS011;4324;42.012;24.872;2023-02-16T04:41:16;5.97;;;5.00;;
8572;SDS011;4324;42.012;24.872;2023-02-16T04:43:43;8.20;;;5.73;;
8572;SDS011;4324;42.012;24.872;2023-02-16T04:46:10;7.63;;;6.03;;
8572;SDS011;4324;42.012;24.872;2023-02-16T04:48:37;6.73;;;5.37;;
8572;SDS011;4324;42.012;24.872;2023-02-16T04:51:04;8.07;;;6.20;;
8572;SDS011;4324;42.012;24.872;2023-02-16T04:53:31;8.30;;;5.93;;
8572;SDS011;4324;42.012;24.872;2023-02-16T04:55:59;7.73;;;5.27;;
8572;SDS011;4324;42.012;24.872;2023-02-16T04:58:26;7.13;;;5.77;;
8572;SDS011;4324;42.012;24.872;2023-02-16T05:00:53;8.13;;;5.70;;
8572;SDS011;4324;42.012;24.872;2023-02-16T05:03:20;9.40;;;7.43;;
8572;SDS011;4324;42.012;24.872;2023-02-16T05:05:47;13.17;;;8.13;;
8572;SDS011;4324;42.012;24.872;2023-02-16T05:08:15;9.20;;;8.20;;
8572;SDS011;4324;42.012;24.872;2023-02-16T05:10:41;7.10;;;5.80;;
8572;SDS011;4324;42.012;24.872;2023-02-16T05:13:10;8.03;;;6.20;;
8572;SDS011;4324;42.012;24.872;2023-02-16T05:15:54;8.40;;;5.50;;
8572;SDS011;4324;42.012;24.872;2023-02-16T05:18:21;6.37;;;5.63;;
8572;SDS011;4324;42.012;24.872;2023-02-16T05:20:48;6.47;;;5.43;;
8572;SDS011;4324;42.012;24.872;2023-02-16T05:23:32;7.33;;;5.47;;
8572;SDS011;4324;42.012;24.872;2023-02-16T05:25:59;6.20;;;5.27;;
8572;SDS011;4324;42.012;24.872;2023-02-16T05:28:27;9.73;;;7.50;;
8572;SDS011;4324;42.012;24.872;2023-02-16T05:30:54;7.80;;;6.90;;
8572;SDS011;4324;42.012;24.872;2023-02-16T05:33:21;8.07;;;6.40;;
8572;SDS011;4324;42.012;24.872;2023-02-16T05:35:48;9.00;;;6.60;;
8572;SDS011;4324;42.012;24.872;2023-02-16T05:38:15;6.73;;;5.63;;
8572;SDS011;4324;42.012;24.872;2023-02-16T05:40:42;14.03;;;8.67;;
8572;SDS011;4324;42.012;24.872;2023-02-16T05:43:09;12.13;;;8.60;;
8572;SDS011;4324;42.012;24.872;2023-02-16T05:45:38;6.97;;;5.93;;
8572;SDS011;4324;42.012;24.872;2023-02-16T05:48:05;8.80;;;5.53;;
8572;SDS011;4324;42.012;24.872;2023-02-16T05:50:32;9.50;;;6.67;;
8572;SDS011;4324;42.012;24.872;2023-02-16T05:52:59;6.93;;;5.43;;
8572;SDS011;4324;42.012;24.872;2023-02-16T05:55:26;10.27;;;6.13;;
8572;SDS011;4324;42.012;24.872;2023-02-16T05:57:52;7.80;;;6.00;;
8572;SDS011;4324;42.012;24.872;2023-02-16T06:00:20;10.20;;;7.13;;
8572;SDS011;4324;42.012;24.872;2023-02-16T06:02:48;10.77;;;8.60;;
8572;SDS011;4324;42.012;24.872;2023-02-16T06:05:15;7.70;;;5.47;;
8572;SDS011;4324;42.012;24.872;2023-02-16T06:07:42;11.00;;;8.33;;
8572;SDS011;4324;42.012;24.872;2023-02-16T06:10:09;9.03;;;6.93;;
8572;SDS011;4324;42.012;24.872;2023-02-16T06:12:36;9.43;;;6.27;;
8572;SDS011;4324;42.012;24.872;2023-02-16T06:15:03;8.33;;;5.83;;
8572;SDS011;4324;42.012;24.872;2023-02-16T06:17:30;7.10;;;5.90;;
8572;SDS011;4324;42.012;24.872;2023-02-16T06:19:58;7.77;;;5.87;;
8572;SDS011;4324;42.012;24.872;2023-02-16T06:22:25;14.03;;;11.70;;
8572;SDS011;4324;42.012;24.872;2023-02-16T06:24:52;8.27;;;6.90;;
8572;SDS011;4324;42.012;24.872;2023-02-16T06:27:19;8.23;;;6.27;;
8572;SDS011;4324;42.012;24.872;2023-02-16T06:29:46;7.87;;;5.80;;
8572;SDS011;4324;42.012;24.872;2023-02-16T06:32:12;9.37;;;5.90;;
8572;SDS011;4324;42.012;24.872;2023-02-16T06:34:39;7.70;;;6.23;;
8572;SDS011;4324;42.012;24.872;2023-02-16T06:37:08;11.57;;;6.70;;
8572;SDS011;4324;42.012;24.872;2023-02-16T06:39:34;10.27;;;5.87;;
8572;SDS011;4324;42.012;24.872;2023-02-16T06:42:01;11.20;;;6.23;;
8572;SDS011;4324;42.012;24.872;2023-02-16T06:44:28;8.60;;;5.97;;
8572;SDS011;4324;42.012;24.872;2023-02-16T06:46:55;9.57;;;6.73;;
8572;SDS011;4324;42.012;24.872;2023-02-16T06:49:22;7.80;;;6.07;;
8572;SDS011;4324;42.012;24.872;2023-02-16T06:51:50;7.17;;;6.17;;
8572;SDS011;4324;42.012;24.872;2023-02-16T06:54:18;7.73;;;6.07;;
8572;SDS011;4324;42.012;24.872;2023-02-16T06:56:45;23.57;;;6.50;;
8572;SDS011;4324;42.012;24.872;2023-02-16T06:59:12;8.67;;;6.63;;
8572;SDS011;4324;42.012;24.872;2023-02-16T07:01:39;14.00;;;9.07;;
8572;SDS011;4324;42.012;24.872;2023-02-16T07:04:09;9.20;;;5.87;;
8572;SDS011;4324;42.012;24.872;2023-02-16T07:06:36;10.20;;;8.07;;
8572;SDS011;4324;42.012;24.872;2023-02-16T07:09:02;8.97;;;7.00;;
8572;SDS011;4324;42.012;24.872;2023-02-16T07:11:31;12.97;;;8.20;;
8572;SDS011;4324;42.012;24.872;2023-02-16T07:13:58;8.27;;;7.10;;
8572;SDS011;4324;42.012;24.872;2023-02-16T07:16:24;13.47;;;8.83;;
8572;SDS011;4324;42.012;24.872;2023-02-16T07:18:51;10.10;;;6.90;;
8572;SDS011;4324;42.012;24.872;2023-02-16T07:21:18;10.83;;;9.73;;
8572;SDS011;4324;42.012;24.872;2023-02-16T07:23:45;10.67;;;9.00;;
8572;SDS011;4324;42.012;24.872;2023-02-16T07:26:12;10.83;;;8.33;;
8572;SDS011;4324;42.012;24.872;2023-02-16T07:28:41;12.57;;;9.87;;
8572;SDS011;4324;42.012;24.872;2023-02-16T07:31:08;16.90;;;11.70;;
8572;SDS011;4324;42.012;24.872;2023-02-16T07:33:36;26.67;;;18.53;;
8572;SDS011;4324;42.012;24.872;2023-02-16T07:36:07;32.33;;;22.63;;
8572;SDS011;4324;42.012;24.872;2023-02-16T07:38:35;25.60;;;17.67;;
8572;SDS011;4324;42.012;24.872;2023-02-16T07:41:03;23.70;;;17.63;;
8572;SDS011;4324;42.012;24.872;2023-02-16T07:43:30;31.00;;;21.10;;
8572;SDS011;4324;42.012;24.872;2023-02-16T07:46:00;18.63;;;13.73;;
8572;SDS011;4324;42.012;24.872;2023-02-16T07:48:27;15.80;;;12.37;;
8572;SDS011;4324;42.012;24.872;2023-02-16T07:50:54;25.73;;;18.77;;
8572;SDS011;4324;42.012;24.872;2023-02-16T07:53:20;25.13;;;18.03;;
8572;SDS011;4324;42.012;24.872;2023-02-16T07:55:47;28.13;;;20.33;;
8572;SDS011;4324;42.012;24.872;2023-02-16T07:58:14;28.67;;;20.67;;
8572;SDS011;4324;42.012;24.872;2023-02-16T08:00:51;39.30;;;26.10;;
8572;SDS011;4324;42.012;24.872;2023-02-16T08:03:20;35.73;;;24.97;;
8572;SDS011;4324;42.012;24.872;2023-02-16T08:05:47;35.33;;;25.03;;
8572;SDS011;4324;42.012;24.872;2023-02-16T08:08:14;29.60;;;22.40;;
8572;SDS011;4324;42.012;24.872;2023-02-16T08:10:47;26.43;;;19.93;;
8572;SDS011;4324;42.012;24.872;2023-02-16T08:13:14;27.17;;;19.80;;
8572;SDS011;4324;42.012;24.872;2023-02-16T08:15:41;26.27;;;19.87;;
8572;SDS011;4324;42.012;24.872;2023-02-16T08:18:08;27.87;;;21.47;;
8572;SDS011;4324;42.012;24.872;2023-02-16T08:20:37;27.00;;;20.03;;
8572;SDS011;4324;42.012;24.872;2023-02-16T08:23:04;29.57;;;21.30;;
8572;SDS011;4324;42.012;24.872;2023-02-16T08:25:32;29.47;;;22.43;;
8572;SDS011;4324;42.012;24.872;2023-02-16T08:27:59;32.40;;;20.87;;
8572;SDS011;4324;42.012;24.872;2023-02-16T08:30:26;31.97;;;22.03;;
8572;SDS011;4324;42.012;24.872;2023-02-16T08:32:52;33.23;;;23.03;;
8572;SDS011;4324;42.012;24.872;2023-02-16T08:35:25;34.87;;;22.40;;
8572;SDS011;4324;42.012;24.872;2023-02-16T08:37:53;26.10;;;20.60;;
8572;SDS011;4324;42.012;24.872;2023-02-16T08:40:20;26.70;;;19.97;;
8572;SDS011;4324;42.012;24.872;2023-02-16T08:42:49;26.83;;;21.97;;
8572;SDS011;4324;42.012;24.872;2023-02-16T08:45:15;27.13;;;20.93;;
8572;SDS011;4324;42.012;24.872;2023-02-16T08:47:44;29.20;;;20.20;;
8572;SDS011;4324;42.012;24.872;2023-02-16T08:50:10;26.83;;;20.53;;
8572;SDS011;4324;42.012;24.872;2023-02-16T08:52:37;24.17;;;19.43;;
8572;SDS011;4324;42.012;24.872;2023-02-16T08:55:06;26.63;;;18.90;;
8572;SDS011;4324;42.012;24.872;2023-02-16T08:57:33;27.40;;;19.93;;
8572;SDS011;4324;42.012;24.872;2023-02-16T09:00:02;26.37;;;21.13;;
8572;SDS011;4324;42.012;24.872;2023-02-16T09:02:47;23.73;;;18.17;;
8572;SDS011;4324;42.012;24.872;2023-02-16T09:05:14;23.27;;;18.97;;
8572;SDS011;4324;42.012;24.872;2023-02-16T09:07:41;22.77;;;17.77;;
8572;SDS011;4324;42.012;24.872;2023-02-16T09:10:11;25.00;;;19.20;;
8572;SDS011;4324;42.012;24.872;2023-02-16T09:12:38;25.20;;;18.90;;
8572;SDS011;4324;42.012;24.872;2023-02-16T09:15:05;24.77;;;19.33;;
8572;SDS011;4324;42.012;24.872;2023-02-16T09:17:33;26.90;;;20.63;;
8572;SDS011;4324;42.012;24.872;2023-02-16T09:20:00;37.67;;;29.27;;
8572;SDS011;4324;42.012;24.872;2023-02-16T09:22:27;37.07;;;25.50;;
8572;SDS011;4324;42.012;24.872;2023-02-16T09:24:54;35.13;;;26.50;;
8572;SDS011;4324;42.012;24.872;2023-02-16T09:27:25;35.87;;;26.33;;
8572;SDS011;4324;42.012;24.872;2023-02-16T09:29:52;29.77;;;23.20;;
8572;SDS011;4324;42.012;24.872;2023-02-16T09:32:20;26.67;;;21.97;;
8572;SDS011;4324;42.012;24.872;2023-02-16T09:34:47;27.83;;;22.90;;
8572;SDS011;4324;42.012;24.872;2023-02-16T09:37:15;24.77;;;18.37;;
8572;SDS011;4324;42.012;24.872;2023-02-16T09:39:42;26.97;;;20.60;;
8572;SDS011;4324;42.012;24.872;2023-02-16T09:42:15;25.40;;;20.30;;
8572;SDS011;4324;42.012;24.872;2023-02-16T09:44:57;22.70;;;17.87;;
8572;SDS011;4324;42.012;24.872;2023-02-16T09:47:32;21.57;;;18.33;;
8572;SDS011;4324;42.012;24.872;2023-02-16T09:50:02;24.43;;;19.23;;
8572;SDS011;4324;42.012;24.872;2023-02-16T09:52:33;25.03;;;19.60;;
8572;SDS011;4324;42.012;24.872;2023-02-16T09:55:05;26.33;;;21.20;;
8572;SDS011;4324;42.012;24.872;2023-02-16T09:57:37;27.77;;;18.60;;
8572;SDS011;4324;42.012;24.872;2023-02-16T10:00:19;28.00;;;20.43;;
8572;SDS011;4324;42.012;24.872;2023-02-16T10:02:51;22.90;;;19.23;;
8572;SDS011;4324;42.012;24.872;2023-02-16T10:05:25;25.67;;;19.87;;
8572;SDS011;4324;42.012;24.872;2023-02-16T10:07:58;25.00;;;18.77;;
8572;SDS011;4324;42.012;24.872;2023-02-16T10:10:30;21.70;;;17.87;;
8572;SDS011;4324;42.012;24.872;2023-02-16T10:13:03;25.53;;;19.93;;
8572;SDS011;4324;42.012;24.872;2023-02-16T10:15:38;26.70;;;19.80;;
8572;SDS011;4324;42.012;24.872;2023-02-16T10:18:13;23.50;;;19.50;;
8572;SDS011;4324;42.012;24.872;2023-02-16T10:20:47;22.33;;;17.63;;
8572;SDS011;4324;42.012;24.872;2023-02-16T10:23:23;23.57;;;17.33;;
8572;SDS011;4324;42.012;24.872;2023-02-16T10:25:58;24.77;;;18.53;;
8572;SDS011;4324;42.012;24.872;2023-02-16T10:28:31;23.93;;;19.50;;
8572;SDS011;4324;42.012;24.872;2023-02-16T10:31:10;21.30;;;17.60;;
8572;SDS011;4324;42.012;24.872;2023-02-16T10:33:41;22.80;;;17.80;;
8572;SDS011;4324;42.012;24.872;2023-02-16T10:36:13;23.07;;;18.40;;
8572;SDS011;4324;42.012;24.872;2023-02-16T10:38:48;24.30;;;19.07;;
8572;SDS011;4324;42.012;24.872;2023-02-16T10:41:23;22.23;;;18.17;;
8572;SDS011;4324;42.012;24.872;2023-02-16T10:43:57;24.43;;;19.57;;
8572;SDS011;4324;42.012;24.872;2023-02-16T10:46:31;23.73;;;19.33;;
8572;SDS011;4324;42.012;24.872;2023-02-16T10:49:01;25.80;;;20.63;;
8572;SDS011;4324;42.012;24.872;2023-02-16T10:51:30;38.23;;;27.80;;
8572;SDS011;4324;42.012;24.872;2023-02-16T10:54:02;37.67;;;27.40;;
8572;SDS011;4324;42.012;24.872;2023-02-16T10:59:24;22.70;;;18.47;;
8572;SDS011;4324;42.012;24.872;2023-02-16T11:01:57;25.90;;;19.10;;
8572;SDS011;4324;42.012;24.872;2023-02-16T11:04:30;23.50;;;18.37;;
8572;SDS011;4324;42.012;24.872;2023-02-16T11:07:00;30.67;;;24.97;;
8572;SDS011;4324;42.012;24.872;2023-02-16T11:09:29;23.17;;;19.20;;
8572;SDS011;4324;42.012;24.872;2023-02-16T11:11:56;22.27;;;19.20;;
8572;SDS011;4324;42.012;24.872;2023-02-16T11:14:24;21.70;;;17.77;;
8572;SDS011;4324;42.012;24.872;2023-02-16T11:17:03;22.27;;;18.03;;
8572;SDS011;4324;42.012;24.872;2023-02-16T11:19:32;19.63;;;17.07;;
8572;SDS011;4324;42.012;24.872;2023-02-16T11:22:00;20.80;;;16.67;;
8572;SDS011;4324;42.012;24.872;2023-02-16T11:24:28;23.93;;;18.23;;
8572;SDS011;4324;42.012;24.872;2023-02-16T11:26:58;21.73;;;18.73;;
8572;SDS011;4324;42.012;24.872;2023-02-16T11:29:26;22.43;;;18.57;;
8572;SDS011;4324;42.012;24.872;2023-02-16T11:31:54;22.40;;;17.50;;
8572;SDS011;4324;42.012;24.872;2023-02-16T11:34:25;21.10;;;16.87;;
8572;SDS011;4324;42.012;24.872;2023-02-16T11:37:01;20.20;;;17.27;;
8572;SDS011;4324;42.012;24.872;2023-02-16T11:39:33;18.77;;;16.60;;
8572;SDS011;4324;42.012;24.872;2023-02-16T11:42:04;17.63;;;15.57;;
8572;SDS011;4324;42.012;24.872;2023-02-16T11:44:34;20.67;;;17.27;;
8572;SDS011;4324;42.012;24.872;2023-02-16T11:47:04;20.97;;;17.13;;
8572;SDS011;4324;42.012;24.872;2023-02-16T11:49:36;22.80;;;18.27;;
8572;SDS011;4324;42.012;24.872;2023-02-16T11:52:24;26.93;;;18.90;;
8572;SDS011;4324;42.012;24.872;2023-02-16T11:54:55;24.90;;;17.93;;
8572;SDS011;4324;42.012;24.872;2023-02-16T11:57:24;19.67;;;16.93;;
8572;SDS011;4324;42.012;24.872;2023-02-16T11:59:53;23.17;;;18.33;;
8572;SDS011;4324;42.012;24.872;2023-02-16T12:05:28;26.47;;;19.40;;
8572;SDS011;4324;42.012;24.872;2023-02-16T12:08:11;24.47;;;20.47;;
8572;SDS011;4324;42.012;24.872;2023-02-16T12:11:00;23.83;;;18.90;;
8572;SDS011;4324;42.012;24.872;2023-02-16T12:13:35;22.03;;;17.37;;
8572;SDS011;4324;42.012;24.872;2023-02-16T12:16:15;21.57;;;17.87;;
8572;SDS011;4324;42.012;24.872;2023-02-16T12:18:54;22.67;;;17.80;;
8572;SDS011;4324;42.012;24.872;2023-02-16T12:21:34;23.17;;;19.17;;
8572;SDS011;4324;42.012;24.872;2023-02-16T12:24:09;21.37;;;17.97;;
8572;SDS011;4324;42.012;24.872;2023-02-16T12:26:49;23.40;;;19.43;;
8572;SDS011;4324;42.012;24.872;2023-02-16T12:29:23;22.60;;;17.60;;
8572;SDS011;4324;42.012;24.872;2023-02-16T12:32:09;20.90;;;16.83;;
8572;SDS011;4324;42.012;24.872;2023-02-16T12:34:49;26.47;;;17.40;;
8572;SDS011;4324;42.012;24.872;2023-02-16T12:37:26;20.47;;;16.90;;
8572;SDS011;4324;42.012;24.872;2023-02-16T12:40:02;19.90;;;17.37;;
8572;SDS011;4324;42.012;24.872;2023-02-16T12:42:44;21.17;;;16.77;;
8572;SDS011;4324;42.012;24.872;2023-02-16T12:45:21;20.73;;;17.17;;
8572;SDS011;4324;42.012;24.872;2023-02-16T12:47:51;21.33;;;16.40;;
8572;SDS011;4324;42.012;24.872;2023-02-16T12:50:23;22.57;;;17.10;;
8572;SDS011;4324;42.012;24.872;2023-02-16T12:52:55;20.13;;;16.53;;
8572;SDS011;4324;42.012;24.872;2023-02-16T12:55:26;22.73;;;17.03;;
8572;SDS011;4324;42.012;24.872;2023-02-16T12:57:59;19.00;;;16.73;;
8572;SDS011;4324;42.012;24.872;2023-02-16T13:00:40;20.00;;;17.07;;
8572;SDS011;4324;42.012;24.872;2023-02-16T13:03:16;20.63;;;17.13;;
8572;SDS011;4324;42.012;24.872;2023-02-16T13:05:52;24.73;;;19.13;;
8572;SDS011;4324;42.012;24.872;2023-02-16T13:08:29;21.50;;;17.87;;
8572;SDS011;4324;42.012;24.872;2023-02-16T13:11:07;18.87;;;16.37;;
8572;SDS011;4324;42.012;24.872;2023-02-16T13:13:39;19.33;;;16.77;;
8572;SDS011;4324;42.012;24.872;2023-02-16T13:16:10;21.97;;;16.37;;
8572;SDS011;4324;42.012;24.872;2023-02-16T13:18:41;20.00;;;16.57;;
8572;SDS011;4324;42.012;24.872;2023-02-16T13:21:12;21.57;;;17.17;;
8572;SDS011;4324;42.012;24.872;2023-02-16T13:23:56;20.80;;;16.57;;
8572;SDS011;4324;42.012;24.872;2023-02-16T13:26:41;22.63;;;17.53;;
8572;SDS011;4324;42.012;24.872;2023-02-16T13:35:09;23.97;;;17.53;;
8572;SDS011;4324;42.012;24.872;2023-02-16T13:37:51;21.27;;;16.43;;
8572;SDS011;4324;42.012;24.872;2023-02-16T13:40:35;20.77;;;16.37;;
8572;SDS011;4324;42.012;24.872;2023-02-16T13:43:25;20.97;;;16.63;;
8572;SDS011;4324;42.012;24.872;2023-02-16T13:45:58;25.03;;;17.77;;
8572;SDS011;4324;42.012;24.872;2023-02-16T13:48:29;17.13;;;14.97;;
8572;SDS011;4324;42.012;24.872;2023-02-16T13:51:03;33.90;;;17.60;;
8572;SDS011;4324;42.012;24.872;2023-02-16T13:53:35;20.63;;;17.03;;
8572;SDS011;4324;42.012;24.872;2023-02-16T13:56:13;22.37;;;16.37;;
8572;SDS011;4324;42.012;24.872;2023-02-16T13:58:46;22.20;;;17.37;;
8572;SDS011;4324;42.012;24.872;2023-02-16T14:01:33;23.80;;;16.90;;
8572;SDS011;4324;42.012;24.872;2023-02-16T14:04:03;23.07;;;17.53;;
8572;SDS011;4324;42.012;24.872;2023-02-16T14:06:33;21.00;;;16.80;;
8572;SDS011;4324;42.012;24.872;2023-02-16T14:12:17;29.73;;;18.47;;
8572;SDS011;4324;42.012;24.872;2023-02-16T14:14:55;21.87;;;17.80;;
8572;SDS011;4324;42.012;24.872;2023-02-16T14:17:31;22.63;;;17.73;;
8572;SDS011;4324;42.012;24.872;2023-02-16T14:19:59;21.77;;;17.17;;
8572;SDS011;4324;42.012;24.872;2023-02-16T14:22:36;26.87;;;19.03;;
8572;SDS011;4324;42.012;24.872;2023-02-16T14:28:03;20.13;;;16.93;;
8572;SDS011;4324;42.012;24.872;2023-02-16T14:30:33;23.43;;;17.37;;
8572;SDS011;4324;42.012;24.872;2023-02-16T14:33:03;22.43;;;17.93;;
8572;SDS011;4324;42.012;24.872;2023-02-16T14:35:41;22.20;;;17.80;;
8572;SDS011;4324;42.012;24.872;2023-02-16T14:38:15;26.13;;;20.77;;
8572;SDS011;4324;42.012;24.872;2023-02-16T14:40:48;28.20;;;20.13;;
8572;SDS011;4324;42.012;24.872;2023-02-16T14:43:25;21.10;;;16.80;;
8572;SDS011;4324;42.012;24.872;2023-02-16T14:46:03;29.30;;;20.57;;
8572;SDS011;4324;42.012;24.872;2023-02-16T14:48:58;32.23;;;22.77;;
8572;SDS011;4324;42.012;24.872;2023-02-16T14:51:56;37.30;;;26.83;;
8572;SDS011;4324;42.012;24.872;2023-02-16T14:57:46;37.30;;;27.37;;
8572;SDS011;4324;42.012;24.872;2023-02-16T15:00:20;38.87;;;27.93;;
8572;SDS011;4324;42.012;24.872;2023-02-16T15:02:55;38.77;;;28.23;;
8572;SDS011;4324;42.012;24.872;2023-02-16T15:05:24;40.10;;;28.97;;
8572;SDS011;4324;42.012;24.872;2023-02-16T15:07:57;47.37;;;29.53;;
8572;SDS011;4324;42.012;24.872;2023-02-16T15:10:29;42.17;;;29.60;;
8572;SDS011;4324;42.012;24.872;2023-02-16T15:12:56;32.27;;;22.97;;
8572;SDS011;4324;42.012;24.872;2023-02-16T15:15:26;31.53;;;24.10;;
8572;SDS011;4324;42.012;24.872;2023-02-16T15:18:04;35.70;;;28.00;;
8572;SDS011;4324;42.012;24.872;2023-02-16T15:20:33;32.20;;;25.50;;
8572;SDS011;4324;42.012;24.872;2023-02-16T15:23:03;35.53;;;25.93;;
8572;SDS011;4324;42.012;24.872;2023-02-16T15:25:37;40.17;;;27.07;;
8572;SDS011;4324;42.012;24.872;2023-02-16T15:28:14;36.90;;;25.87;;
8572;SDS011;4324;42.012;24.872;2023-02-16T15:30:47;36.70;;;27.47;;
8572;SDS011;4324;42.012;24.872;2023-02-16T15:33:24;50.20;;;35.20;;
8572;SDS011;4324;42.012;24.872;2023-02-16T15:35:57;54.93;;;36.47;;
8572;SDS011;4324;42.012;24.872;2023-02-16T15:38:26;49.37;;;36.70;;